Details From EGGW - London Luton
To EGNR - Hawarden
Flight Number -
Tags decoded
Created
Modified
Stats Distance 140 nm / 259 km
Max Altitude 0 ft / 0 m
Waypoints 5
Social Downloads 0
Likes 0
Share VATSIM

Download

Looking for another format? Having issues loading an existing format? Contact us
Advertisement - Login to hide

Notes

Requested: EGGW HON LISTO LOVEL EGNR

Route

EGGW HON LISTO LOVEL EGNR

ID Type Via Altitude Latitude Longitude Leg Dist Tot Dist Heading (true) Name
O EGGW APT - 0 ft / 0 m 51.87463˚ -0.36845˚ - 0 nm - London Luton
HON VOR - 0 ft / 0 m 52.35667˚ -1.66361˚ 55 nm 55 nm 302° / 301° HONILEY VOR-DME
LISTO FIX - 0 ft / 0 m 53.14333˚ -2.19917˚ 51 nm 106 nm 338° / 337° -
LOVEL FIX - 0 ft / 0 m 53.25167˚ -2.27444˚ 7 nm 113 nm 337° / 337° -
O EGNR APT - 0 ft / 0 m 53.17813˚ -2.97766˚ 25 nm 139 nm 260° / 260° Hawarden

Altitude Profile

Advertisement - Login to hide

EGGW

Details ICAO EGGW (LTN)
Name London Luton
Region United Kingdom
Timezone Europe/London (UTC+1.0)
Stats Elevation 526 ft / 160 m (AMSL)
Location 51.874629° -0.368450°
Runways 1
Magnetic Variation 0.508° W

METAR

EGGW 231720Z AUTO 02012KT 350V050 9999 FEW015 13/10 Q1023

Decode

TAF

TAF AMD EGGW 231223Z 2312/2412 02012KT 9999 BKN010 BECMG 2312/2314 FEW030 TEMPO 2312/2319 03015G25KT PROB30 TEMPO 2317/2411 6000 SHRA PROB30 2323/2408 BKN007

Decode

Departure Runways

ID Width Length Bearing (true) Bearing (mag) Surface Threshold Offset Overrun Length
08 151 ft / 46 m 7,066 ft / 2,154 m 74.35° 74.86° Asphalt 0 ft / 0 m 200 ft / 61 m
26 151 ft / 46 m 7,066 ft / 2,154 m 254.38° 254.89° Asphalt 272 ft / 83 m 0 ft / 0 m

EGNR

Details ICAO EGNR (CEG)
Name Hawarden
Region United Kingdom
Timezone Europe/London (UTC+1.0)
Stats Elevation 45 ft / 14 m (AMSL)
Location 53.178130° -2.977664°
Runways 1
Magnetic Variation 1.631° W

METAR

EGNR 231720Z 11006KT 070V160 9999 FEW040 22/09 Q1024

Decode

TAF

Not found

Destination Runways

ID Width Length Bearing (true) Bearing (mag) Surface Threshold Offset Overrun Length
05 148 ft / 45 m 6,680 ft / 2,036 m 40.93° 42.56° Asphalt 984 ft / 300 m 0 ft / 0 m
23 148 ft / 45 m 6,680 ft / 2,036 m 220.94° 222.57° Asphalt 984 ft / 300 m 0 ft / 0 m

Approach Navaids

Runway Type Ident Frequency Range Bearing (true) Bearing (mag) Slope Elevation
05 Localiser IHWD 110.35 MHz 18 nm / 33 km 34.27° 35.90° - 45 ft / 14 m (AMSL)
05 Glidescope IHWD 110.35 MHz 10 nm / 19 km 40.94° 42.57° 3.50° 42 ft / 13 m (AMSL)
05 DME IHWD 110.35 MHz 18 nm / 33 km - - - 45 ft / 14 m (AMSL)
23 Localiser IHDN 110.35 MHz 18 nm / 33 km 220.89° 222.52° - 32 ft / 10 m (AMSL)
23 Glidescope IHDN 110.35 MHz 10 nm / 19 km 220.94° 222.57° 3.00° 17 ft / 5 m (AMSL)
23 DME IHDN 110.35 MHz 18 nm / 33 km - - - 17 ft / 5 m (AMSL)

Popular Alternatives